Arch, New Mexico
Current Conditions -  °F | °C
As of 7:58 PM on Friday 19 Dec 2014 (Local Time) from KCVS Reporting Station
Clear Clear  
Wind Chill: 24°   Ceiling: Unl
Heat Index: 32°   Visibility: 10mi
Dew Point: 29°   Wind: 8mph
Humidity: 90%   Direction: 110°ESE
Pressure: 30.12"   Gusts: NA
Location:  34.1669°N, 103.266°W
Report Text: KCVS 200258Z 11007KT 10SM CLR 00/M02 A3012 RMK AO2A SLP209 T10021017 52009 $
Loading
Personal Weather Stations






























Interactive Weather Map New forecast layout! Learn more

10-Day Weather Forecast

Advertisements
Track Severe Weather on mobile